Terminal Aerodrome Forecast
Issued by NWS Tulsa, OK

Home | Current Version | Previous Version | Text Only | Print | Product List | Glossary On
Versions: 1 2 3 4 5 6 7 8 9 10 11 12 13 14
269
FTUS44 KTSA 140520
TAFTUL
TAF
KTUL 140520Z 1406/1506 13010KT P6SM OVC040
     FM140900 15012KT P6SM OVC015
     FM141500 14007KT 4SM -DZ BR OVC007
     FM141800 35005KT P6SM OVC012
     FM142100 VRB04KT P6SM BKN250=

USA.gov is the U.S. government's official web portal to all federal, state and local government web resources and services.